Observation data for Muleshoe on 05/13/2018      Previous  Date  Next       Current Mesonet Observations  Soil Data  Daily Summary Page  Observations in Plain Language
KMUS 130500Z 21008KT 20/M03 A2993 RMK A01 T01961033  RH  021%=      5-min Rain = 0
KMUS 130505Z 20008KT 19/M03 A2993 RMK A01 T01921031  RH  022%=      5-min Rain = 0
KMUS 130510Z 21007KT 19/M03 A2993 RMK A01 T01861030  RH  023%=      5-min Rain = 0
KMUS 130515Z 21008KT 18/M03 A2993 RMK A01 T01821030  RH  024%=      5-min Rain = 0
KMUS 130520Z 21008KT 18/M03 A2993 RMK A01 T01801031  RH  024%=      5-min Rain = 0
KMUS 130525Z 21008KT 19/M04 A2993 RMK A01 T01851035  RH  022%=      5-min Rain = 0
KMUS 130530Z 20007KT 19/M03 A2993 RMK A01 T01871030  RH  023%=      5-min Rain = 0
KMUS 130535Z 20009KT 19/M03 A2993 RMK A01 T01921032  RH  022%=      5-min Rain = 0
KMUS 130540Z 21009KT 20/M03 A2993 RMK A01 T01971034  RH  021%=      5-min Rain = 0
KMUS 130545Z 20009KT 20/M03 A2993 RMK A01 T01961033  RH  021%=      5-min Rain = 0
KMUS 130550Z 20009KT 20/M03 A2993 RMK A01 T02011033  RH  021%=      5-min Rain = 0
KMUS 130555Z 21009KT 21/M04 A2993 RMK A01 T02061036  RH  019%=      5-min Rain = 0
KMUS 130600Z 21009KT 21/M04 A2993 RMK A01 T02081037  RH  019%=      5-min Rain = 0
KMUS 130605Z 21008KT 21/M04 A2993 RMK A01 T02081037  RH  019%=      5-min Rain = 0
KMUS 130610Z 21008KT 21/M04 A2993 RMK A01 T02061036  RH  019%=      5-min Rain = 0
KMUS 130615Z 20008KT 20/M04 A2993 RMK A01 T02021035  RH  020%=      5-min Rain = 0
KMUS 130620Z 20008KT 20/M03 A2993 RMK A01 T01971032  RH  021%=      5-min Rain = 0
KMUS 130625Z 20008KT 20/M03 A2993 RMK A01 T01951031  RH  022%=      5-min Rain = 0
KMUS 130630Z 19007KT 19/M03 A2994 RMK A01 T01931031  RH  022%=      5-min Rain = 0
KMUS 130635Z 16011G18KT 19/M03 A2995 RMK A01 T01911029  RH  023%=      5-min Rain = 0
KMUS 130640Z 17012G19KT 20/M03 A2995 RMK A01 T01971032  RH  021%=      5-min Rain = 0
KMUS 130645Z 18014G20KT 22/M05 A2995 RMK A01 T02231047  RH  016%=      5-min Rain = 0
KMUS 130650Z 18012KT 23/M05 A2995 RMK A01 T02321048  RH  015%=      5-min Rain = 0
KMUS 130655Z 18013KT 23/M05 A2995 RMK A01 T02301048  RH  015%=      5-min Rain = 0
KMUS 130700Z 17012KT 23/M04 A2995 RMK A01 T02261042  RH  016%=      5-min Rain = 0
KMUS 130705Z 18012KT 22/M04 A2995 RMK A01 T02221041  RH  017%=      5-min Rain = 0
KMUS 130710Z 18011KT 22/M04 A2995 RMK A01 T02191040  RH  017%=      5-min Rain = 0
KMUS 130715Z 17012KT 21/M04 A2995 RMK A01 T02141036  RH  018%=      5-min Rain = 0
KMUS 130720Z 17011KT 21/M03 A2995 RMK A01 T02101029  RH  020%=      5-min Rain = 0
KMUS 130725Z 17011KT 21/M02 A2995 RMK A01 T02081021  RH  022%=      5-min Rain = 0
KMUS 130730Z 17011KT 21/M02 A2995 RMK A01 T02051015  RH  023%=      5-min Rain = 0
KMUS 130735Z 18010KT 20/M01 A2995 RMK A01 T02031008  RH  024%=      5-min Rain = 0
KMUS 130740Z 18010KT 20/00 A2995 RMK A01 T02010000  RH  026%=      5-min Rain = 0
KMUS 130745Z 19010KT 20/01 A2995 RMK A01 T02000005  RH  027%=      5-min Rain = 0
KMUS 130750Z 18010KT 20/01 A2995 RMK A01 T01980009  RH  028%=      5-min Rain = 0
KMUS 130755Z 18011KT 20/02 A2995 RMK A01 T01990016  RH  030%=      5-min Rain = 0
KMUS 130800Z 18011KT 20/02 A2995 RMK A01 T02000021  RH  031%=      5-min Rain = 0
KMUS 130805Z 19010KT 20/02 A2995 RMK A01 T01990023  RH  032%=      5-min Rain = 0
KMUS 130810Z 19011KT 20/03 A2995 RMK A01 T01980027  RH  033%=      5-min Rain = 0
KMUS 130815Z 19011KT 20/03 A2995 RMK A01 T01980030  RH  034%=      5-min Rain = 0
KMUS 130820Z 18011KT 20/03 A2995 RMK A01 T01970033  RH  035%=      5-min Rain = 0
KMUS 130825Z 19011KT 20/04 A2996 RMK A01 T01950041  RH  037%=      5-min Rain = 0
KMUS 130830Z 19011KT 20/05 A2996 RMK A01 T01970047  RH  038%=      5-min Rain = 0
KMUS 130835Z 18011KT 20/05 A2996 RMK A01 T01960052  RH  040%=      5-min Rain = 0
KMUS 130840Z 18010KT 19/06 A2996 RMK A01 T01940055  RH  041%=      5-min Rain = 0
KMUS 130845Z 19009KT 19/06 A2996 RMK A01 T01900056  RH  042%=      5-min Rain = 0
KMUS 130850Z 18010KT 19/06 A2996 RMK A01 T01890060  RH  044%=      5-min Rain = 0
KMUS 130855Z 18010KT 19/06 A2996 RMK A01 T01870062  RH  045%=      5-min Rain = 0
KMUS 130900Z 18009KT 18/06 A2996 RMK A01 T01840064  RH  047%=      5-min Rain = 0
KMUS 130905Z 18009KT 18/07 A2996 RMK A01 T01830067  RH  048%=      5-min Rain = 0
KMUS 130910Z 18008KT 18/07 A2996 RMK A01 T01810069  RH  049%=      5-min Rain = 0
KMUS 130915Z 18009KT 18/07 A2996 RMK A01 T01810072  RH  050%=      5-min Rain = 0
KMUS 130920Z 18009KT 18/08 A2996 RMK A01 T01810075  RH  051%=      5-min Rain = 0
KMUS 130925Z 18009KT 18/08 A2996 RMK A01 T01810077  RH  052%=      5-min Rain = 0
KMUS 130930Z 18009KT 18/08 A2996 RMK A01 T01800080  RH  053%=      5-min Rain = 0
KMUS 130935Z 18010KT 18/08 A2996 RMK A01 T01790082  RH  054%=      5-min Rain = 0
KMUS 130940Z 18009KT 18/08 A2996 RMK A01 T01780083  RH  055%=      5-min Rain = 0
KMUS 130945Z 19009KT 18/08 A2996 RMK A01 T01760084  RH  056%=      5-min Rain = 0
KMUS 130950Z 19009KT 18/09 A2997 RMK A01 T01770087  RH  057%=      5-min Rain = 0
KMUS 130955Z 19009KT 18/09 A2997 RMK A01 T01790090  RH  058%=      5-min Rain = 0
KMUS 131000Z 19010KT 18/09 A2997 RMK A01 T01810093  RH  058%=      5-min Rain = 0
KMUS 131005Z 18010KT 18/10 A2997 RMK A01 T01810095  RH  059%=      5-min Rain = 0
KMUS 131010Z 19009KT 18/10 A2997 RMK A01 T01800096  RH  060%=      5-min Rain = 0
KMUS 131015Z 19009KT 18/10 A2997 RMK A01 T01780097  RH  061%=      5-min Rain = 0
KMUS 131020Z 18009KT 18/10 A2997 RMK A01 T01760098  RH  062%=      5-min Rain = 0
KMUS 131025Z 19009KT 18/10 A2997 RMK A01 T01750100  RH  063%=      5-min Rain = 0
KMUS 131030Z 19009KT 18/10 A2997 RMK A01 T01760101  RH  064%=      5-min Rain = 0
KMUS 131035Z 19009KT 18/10 A2997 RMK A01 T01770103  RH  064%=      5-min Rain = 0
KMUS 131040Z 19010KT 18/10 A2997 RMK A01 T01790104  RH  064%=      5-min Rain = 0
KMUS 131045Z 19010KT 18/11 A2997 RMK A01 T01780105  RH  064%=      5-min Rain = 0
KMUS 131050Z 19009KT 18/11 A2997 RMK A01 T01780105  RH  065%=      5-min Rain = 0
KMUS 131055Z 19009KT 18/11 A2997 RMK A01 T01760105  RH  066%=      5-min Rain = 0
KMUS 131100Z 19008KT 18/11 A2997 RMK A01 T01750107  RH  066%=      5-min Rain = 0
KMUS 131105Z 19009KT 18/11 A2997 RMK A01 T01760108  RH  067%=      5-min Rain = 0
KMUS 131110Z 19010KT 18/11 A2997 RMK A01 T01760108  RH  067%=      5-min Rain = 0
KMUS 131115Z 19010KT 17/11 A2998 RMK A01 T01740108  RH  067%=      5-min Rain = 0
KMUS 131120Z 20009KT 17/11 A2997 RMK A01 T01720108  RH  068%=      5-min Rain = 0
KMUS 131125Z 19010KT 17/11 A2997 RMK A01 T01720110  RH  069%=      5-min Rain = 0
KMUS 131130Z 19009KT 17/11 A2998 RMK A01 T01740111  RH  069%=      5-min Rain = 0
KMUS 131135Z 19008KT 17/11 A2998 RMK A01 T01730111  RH  069%=      5-min Rain = 0
KMUS 131140Z 20009KT 17/11 A2998 RMK A01 T01710111  RH  070%=      5-min Rain = 0
KMUS 131145Z 20009KT 17/11 A2998 RMK A01 T01700111  RH  071%=      5-min Rain = 0
KMUS 131150Z 20009KT 17/11 A2998 RMK A01 T01680111  RH  072%=      5-min Rain = 0
KMUS 131155Z 20008KT 17/11 A2998 RMK A01 T01660110  RH  072%=      5-min Rain = 0
KMUS 131200Z 21007KT 16/11 A2998 RMK A01 T01630110  RH  073%=      5-min Rain = 0
KMUS 131205Z 21007KT 16/11 A2999 RMK A01 T01620110  RH  074%=      5-min Rain = 0
KMUS 131210Z 22006KT 16/11 A2999 RMK A01 T01620110  RH  074%=      5-min Rain = 0
KMUS 131215Z 21005KT 16/11 A2999 RMK A01 T01610110  RH  074%=      5-min Rain = 0
KMUS 131220Z 21004KT 16/11 A2999 RMK A01 T01610110  RH  074%=      5-min Rain = 0
KMUS 131225Z 22004KT 16/11 A30 RMK A01 T01620110  RH  074%=      5-min Rain = 0
KMUS 131230Z 24004KT 16/11 A30 RMK A01 T01640111  RH  074%=      5-min Rain = 0
KMUS 131235Z 24004KT 17/11 A30 RMK A01 T01660112  RH  073%=      5-min Rain = 0
KMUS 131240Z 26003KT 17/11 A30 RMK A01 T01690112  RH  071%=      5-min Rain = 0
KMUS 131245Z 27002KT 17/11 A30 RMK A01 T01690109  RH  070%=      5-min Rain = 0
KMUS 131250Z 29003KT 17/11 A3001 RMK A01 T01690107  RH  069%=      5-min Rain = 0
KMUS 131255Z 30004KT 17/10 A3001 RMK A01 T01660103  RH  068%=      5-min Rain = 0
KMUS 131300Z 30003KT 17/10 A3001 RMK A01 T01660103  RH  068%=      5-min Rain = 0
KMUS 131305Z 29003KT 17/10 A3001 RMK A01 T01660102  RH  068%=      5-min Rain = 0
KMUS 131310Z 24003KT 17/10 A3001 RMK A01 T01660104  RH  069%=      5-min Rain = 0
KMUS 131315Z 22003KT 17/11 A3001 RMK A01 T01710111  RH  070%=      5-min Rain = 0
KMUS 131320Z 22005KT 18/12 A3001 RMK A01 T01830116  RH  067%=      5-min Rain = 0
KMUS 131325Z 22007KT 19/12 A3001 RMK A01 T01940118  RH  064%=      5-min Rain = 0
KMUS 131330Z 22007KT 20/12 A3002 RMK A01 T02010118  RH  061%=      5-min Rain = 0
KMUS 131335Z 22007KT 21/12 A3002 RMK A01 T02060118  RH  059%=      5-min Rain = 0
KMUS 131340Z 22006KT 21/12 A3002 RMK A01 T02110117  RH  057%=      5-min Rain = 0
KMUS 131345Z 24005KT 21/12 A3002 RMK A01 T02130116  RH  056%=      5-min Rain = 0
KMUS 131350Z 30004KT 21/12 A3002 RMK A01 T02100117  RH  057%=      5-min Rain = 0
KMUS 131355Z 29003KT 21/12 A3002 RMK A01 T02080117  RH  058%=      5-min Rain = 0
KMUS 131400Z 29003KT 21/12 A3002 RMK A01 T02080116  RH  058%=      5-min Rain = 0
KMUS 131405Z 27003KT 21/12 A3002 RMK A01 T02090116  RH  057%=      5-min Rain = 0
KMUS 131410Z 25003KT 21/12 A3003 RMK A01 T02120116  RH  056%=      5-min Rain = 0
KMUS 131415Z 24003KT 21/11 A3003 RMK A01 T02140114  RH  055%=      5-min Rain = 0
KMUS 131420Z 23004KT 22/11 A3003 RMK A01 T02160111  RH  053%=      5-min Rain = 0
KMUS 131425Z 22004KT 22/10 A3003 RMK A01 T02200103  RH  049%=      5-min Rain = 0
KMUS 131430Z 21005KT 23/10 A3003 RMK A01 T02250097  RH  045%=      5-min Rain = 0
KMUS 131435Z 20005KT 23/10 A3003 RMK A01 T02280097  RH  045%=      5-min Rain = 0
KMUS 131440Z 19005KT 23/09 A3003 RMK A01 T02300091  RH  042%=      5-min Rain = 0
KMUS 131445Z 22004KT 23/08 A3003 RMK A01 T02330076  RH  037%=      5-min Rain = 0
KMUS 131450Z 22006KT 24/07 A3003 RMK A01 T02360066  RH  034%=      5-min Rain = 0
KMUS 131455Z 23005KT 24/06 A3003 RMK A01 T02380056  RH  031%=      5-min Rain = 0
KMUS 131500Z 24005KT 24/05 A3003 RMK A01 T02410052  RH  030%=      5-min Rain = 0
KMUS 131505Z 25005KT 24/04 A3003 RMK A01 T02440042  RH  028%=      5-min Rain = 0
KMUS 131510Z 24006KT 25/04 A3003 RMK A01 T02470035  RH  026%=      5-min Rain = 0
KMUS 131515Z 25006KT 25/03 A3003 RMK A01 T02490034  RH  025%=      5-min Rain = 0
KMUS 131520Z 26007KT 25/03 A3003 RMK A01 T02510029  RH  024%=      5-min Rain = 0
KMUS 131525Z 25008KT 25/02 A3003 RMK A01 T02500024  RH  023%=      5-min Rain = 0
KMUS 131530Z 26008KT 25/02 A3003 RMK A01 T02500024  RH  023%=      5-min Rain = 0
KMUS 131535Z 26008KT 25/02 A3003 RMK A01 T02510018  RH  022%=      5-min Rain = 0
KMUS 131540Z 26008KT 25/02 A3003 RMK A01 T02500018  RH  022%=      5-min Rain = 0
KMUS 131545Z 27008KT 25/02 A3003 RMK A01 T02490016  RH  022%=      5-min Rain = 0
KMUS 131550Z 26007KT 25/02 A3003 RMK A01 T02510019  RH  022%=      5-min Rain = 0
KMUS 131555Z 27007KT 25/02 A3003 RMK A01 T02530017  RH  022%=      5-min Rain = 0
KMUS 131600Z 27006KT 25/02 A3003 RMK A01 T02540019  RH  022%=      5-min Rain = 0
KMUS 131605Z 27007KT 26/02 A3003 RMK A01 T02570019  RH  021%=      5-min Rain = 0
KMUS 131610Z 28007KT 26/02 A3003 RMK A01 T02590020  RH  021%=      5-min Rain = 0
KMUS 131615Z 27007KT 26/02 A3003 RMK A01 T02630017  RH  021%=      5-min Rain = 0
KMUS 131620Z 26007KT 26/02 A3003 RMK A01 T02620016  RH  020%=      5-min Rain = 0
KMUS 131625Z 26008KT 27/02 A3003 RMK A01 T02650017  RH  020%=      5-min Rain = 0
KMUS 131630Z 26008KT 27/02 A3003 RMK A01 T02660015  RH  020%=      5-min Rain = 0
KMUS 131635Z 27008KT 27/02 A3003 RMK A01 T02670015  RH  020%=      5-min Rain = 0
KMUS 131640Z 27009G15KT 27/01 A3003 RMK A01 T02690013  RH  019%=      5-min Rain = 0
KMUS 131645Z 28007KT 27/02 A3003 RMK A01 T02720015  RH  019%=      5-min Rain = 0
KMUS 131650Z 27008KT 27/01 A3002 RMK A01 T02740013  RH  019%=      5-min Rain = 0
KMUS 131655Z 27008KT 28/01 A3003 RMK A01 T02750013  RH  018%=      5-min Rain = 0
KMUS 131700Z 26009G14KT 28/01 A3002 RMK A01 T02780010  RH  018%=      5-min Rain = 0
KMUS 131705Z 25010KT 28/01 A3002 RMK A01 T02810007  RH  017%=      5-min Rain = 0
KMUS 131710Z 27009KT 28/01 A3002 RMK A01 T02830006  RH  017%=      5-min Rain = 0
KMUS 131715Z 28008KT 28/01 A3002 RMK A01 T02840007  RH  017%=      5-min Rain = 0
KMUS 131720Z 26008KT 29/01 A3002 RMK A01 T02890006  RH  016%=      5-min Rain = 0
KMUS 131725Z 25007G12KT 29/01 A3002 RMK A01 T02920005  RH  016%=      5-min Rain = 0
KMUS 131730Z 24011KT 29/M00 A3002 RMK A01 T02921003  RH  015%=      5-min Rain = 0
KMUS 131735Z 26007KT 29/00 A3001 RMK A01 T028700-0  RH  016%=      5-min Rain = 0
KMUS 131740Z 24008G14KT 29/00 A3001 RMK A01 T02900000  RH  015%=      5-min Rain = 0
KMUS 131745Z 25010KT 30/M00 A3001 RMK A01 T02971004  RH  014%=      5-min Rain = 0
KMUS 131750Z 25009KT 30/M00 A3001 RMK A01 T02981004  RH  014%=      5-min Rain = 0
KMUS 131755Z 25008G13KT 30/M00 A3001 RMK A01 T02971004  RH  014%=      5-min Rain = 0
KMUS 131800Z 28007KT 30/M01 A30 RMK A01 T03021009  RH  013%=      5-min Rain = 0
KMUS 131805Z 24005KT 30/M01 A30 RMK A01 T03001011  RH  013%=      5-min Rain = 0
KMUS 131810Z 22005KT 30/M01 A30 RMK A01 T03031009  RH  013%=      5-min Rain = 0
KMUS 131815Z 25007G15KT 30/M01 A2999 RMK A01 T03041012  RH  013%=      5-min Rain = 0
KMUS 131820Z 23007G14KT 31/M01 A2999 RMK A01 T03081009  RH  013%=      5-min Rain = 0
KMUS 131825Z 21006G11KT 31/M01 A2999 RMK A01 T03121007  RH  013%=      5-min Rain = 0
KMUS 131830Z 19005G10KT 32/M01 A2999 RMK A01 T03151010  RH  012%=      5-min Rain = 0
KMUS 131835Z 18008G14KT 32/M01 A2999 RMK A01 T03161010  RH  012%=      5-min Rain = 0
KMUS 131840Z 16008G13KT 32/M02 A2998 RMK A01 T03151015  RH  012%=      5-min Rain = 0
KMUS 131845Z 18011KT 32/M01 A2998 RMK A01 T03191014  RH  012%=      5-min Rain = 0
KMUS 131850Z 20011KT 32/M02 A2998 RMK A01 T03211017  RH  011%=      5-min Rain = 0
KMUS 131855Z 21012G20KT 32/M02 A2997 RMK A01 T03231019  RH  011%=      5-min Rain = 0
KMUS 131900Z 19010G18KT 32/M02 A2997 RMK A01 T03231017  RH  011%=      5-min Rain = 0
KMUS 131905Z 20008G13KT 32/M02 A2997 RMK A01 T03241015  RH  011%=      5-min Rain = 0
KMUS 131910Z 18008G22KT 32/M02 A2997 RMK A01 T03231016  RH  011%=      5-min Rain = 0
KMUS 131915Z 17012G20KT 33/M02 A2997 RMK A01 T03261015  RH  011%=      5-min Rain = 0
KMUS 131920Z 17012G17KT 33/M02 A2996 RMK A01 T03271016  RH  011%=      5-min Rain = 0
KMUS 131925Z 19008KT 32/M02 A2996 RMK A01 T03231017  RH  011%=      5-min Rain = 0
KMUS 131930Z 18011G18KT 33/M02 A2996 RMK A01 T03271020  RH  011%=      5-min Rain = 0
KMUS 131935Z 20015G28KT 33/M02 A2996 RMK A01 T03321024  RH  010%=      5-min Rain = 0
KMUS 131940Z 19014G20KT 33/M03 A2996 RMK A01 T03281028  RH  010%=      5-min Rain = 0
KMUS 131945Z 20009G16KT 33/M03 A2996 RMK A01 T03271028  RH  010%=      5-min Rain = 0
KMUS 131950Z 17011KT 33/M03 A2995 RMK A01 T03281029  RH  010%=      5-min Rain = 0
KMUS 131955Z 21012G18KT 33/M03 A2995 RMK A01 T03281029  RH  010%=      5-min Rain = 0
KMUS 132000Z 19010G18KT 33/M03 A2995 RMK A01 T03301026  RH  010%=      5-min Rain = 0
KMUS 132005Z 19014G20KT 33/M03 A2995 RMK A01 T03321029  RH  010%=      5-min Rain = 0
KMUS 132010Z 22012G18KT 33/M03 A2994 RMK A01 T03301031  RH  010%=      5-min Rain = 0
KMUS 132015Z 22013G19KT 34/M03 A2994 RMK A01 T03351031  RH  009%=      5-min Rain = 0
KMUS 132020Z 21011G18KT 33/M03 A2994 RMK A01 T03341030  RH  010%=      5-min Rain = 0
KMUS 132025Z 20017G25KT 34/M03 A2994 RMK A01 T03351031  RH  009%=      5-min Rain = 0
KMUS 132030Z 18014G23KT 33/M03 A2994 RMK A01 T03341032  RH  009%=      5-min Rain = 0
KMUS 132035Z 19013G22KT 34/M03 A2994 RMK A01 T03371031  RH  009%=      5-min Rain = 0
KMUS 132040Z 20018KT 34/M03 A2993 RMK A01 T03361034  RH  009%=      5-min Rain = 0
KMUS 132045Z 20016G24KT 34/M03 A2993 RMK A01 T03371034  RH  009%=      5-min Rain = 0
KMUS 132050Z 20014G22KT 34/M03 A2993 RMK A01 T03361030  RH  009%=      5-min Rain = 0
KMUS 132055Z 19016KT 34/M03 A2993 RMK A01 T03351032  RH  009%=      5-min Rain = 0
KMUS 132100Z 21015G22KT 34/M03 A2993 RMK A01 T03361028  RH  010%=      5-min Rain = 0
KMUS 132105Z 21012G18KT 34/M03 A2993 RMK A01 T03381026  RH  010%=      5-min Rain = 0
KMUS 132110Z 19015G21KT 34/M02 A2992 RMK A01 T03401024  RH  010%=      5-min Rain = 0
KMUS 132115Z 18016G22KT 34/M03 A2992 RMK A01 T03361027  RH  010%=      5-min Rain = 0
KMUS 132120Z 18015G26KT 34/M03 A2992 RMK A01 T03361026  RH  010%=      5-min Rain = 0
KMUS 132125Z 18016G23KT 34/M03 A2992 RMK A01 T03381028  RH  010%=      5-min Rain = 0
KMUS 132130Z 19014G20KT 33/M03 A2991 RMK A01 T03331029  RH  010%=      5-min Rain = 0
KMUS 132135Z 20012G18KT 33/M03 A2991 RMK A01 T03291030  RH  010%=      5-min Rain = 0
KMUS 132140Z 23014G20KT 33/M03 A2991 RMK A01 T03341027  RH  010%=      5-min Rain = 0
KMUS 132145Z 21014G22KT 34/M02 A2991 RMK A01 T03401021  RH  010%=      5-min Rain = 0
KMUS 132150Z 19015G21KT 34/M03 A2991 RMK A01 T03391026  RH  010%=      5-min Rain = 0
KMUS 132155Z 18009G17KT 34/M03 A299 RMK A01 T03361025  RH  010%=      5-min Rain = 0
KMUS 132200Z 21014G23KT 34/M02 A299 RMK A01 T03381024  RH  010%=      5-min Rain = 0
KMUS 132205Z 21016G25KT 34/M02 A299 RMK A01 T03391024  RH  010%=      5-min Rain = 0
KMUS 132210Z 20016KT 34/M02 A299 RMK A01 T03371024  RH  010%=      5-min Rain = 0
KMUS 132215Z 20013G21KT 34/M02 A299 RMK A01 T03361023  RH  010%=      5-min Rain = 0
KMUS 132220Z 20013G21KT 34/M02 A2989 RMK A01 T03391024  RH  010%=      5-min Rain = 0
KMUS 132225Z 21017G24KT 34/M03 A2989 RMK A01 T03361025  RH  010%=      5-min Rain = 0
KMUS 132230Z 20012G17KT 33/M03 A2989 RMK A01 T03331025  RH  010%=      5-min Rain = 0
KMUS 132235Z 22015KT 34/M02 A2989 RMK A01 T03401023  RH  010%=      5-min Rain = 0
KMUS 132240Z 21014G19KT 34/M03 A2989 RMK A01 T03371025  RH  010%=      5-min Rain = 0
KMUS 132245Z 20017G23KT 33/M03 A2989 RMK A01 T03311027  RH  010%=      5-min Rain = 0
KMUS 132250Z 21016G22KT 33/M03 A2989 RMK A01 T03271027  RH  010%=      5-min Rain = 0
KMUS 132255Z 21016G23KT 32/M03 A2989 RMK A01 T03231029  RH  010%=      5-min Rain = 0
KMUS 132300Z 21018G23KT 32/M03 A2989 RMK A01 T03211027  RH  011%=      5-min Rain = 0
KMUS 132305Z 20017G22KT 32/M03 A299 RMK A01 T03211027  RH  011%=      5-min Rain = 0
KMUS 132310Z 22015G20KT 32/M03 A299 RMK A01 T03211027  RH  011%=      5-min Rain = 0
KMUS 132315Z 21012KT 33/M02 A2989 RMK A01 T03261024  RH  011%=      5-min Rain = 0
KMUS 132320Z 20013G20KT 33/M02 A2989 RMK A01 T03261023  RH  011%=      5-min Rain = 0
KMUS 132325Z 20013G18KT 32/M03 A2989 RMK A01 T03241025  RH  011%=      5-min Rain = 0
KMUS 132330Z 19012G18KT 32/M03 A2989 RMK A01 T03211026  RH  011%=      5-min Rain = 0
KMUS 132335Z 20014G23KT 32/M03 A2989 RMK A01 T03171026  RH  011%=      5-min Rain = 0
KMUS 132340Z 21017KT 32/M03 A2989 RMK A01 T03151030  RH  011%=      5-min Rain = 0
KMUS 132345Z 21014KT 32/M03 A2989 RMK A01 T03161029  RH  011%=      5-min Rain = 0
KMUS 132350Z 21013KT 32/M03 A2988 RMK A01 T03221025  RH  011%=      5-min Rain = 0
KMUS 132355Z 22013G21KT 32/M03 A2988 RMK A01 T03241028  RH  010%=      5-min Rain = 0
KMUS 140000Z 21017KT 32/M03 A2988 RMK A01 T03201034  RH  010%=      5-min Rain = 0
KMUS 140005Z 21016G23KT 32/M03 A2988 RMK A01 T03161034  RH  010%=      5-min Rain = 0
KMUS 140010Z 22017G23KT 32/M04 A2988 RMK A01 T03161037  RH  010%=      5-min Rain = 0
KMUS 140015Z 22018G24KT 32/M04 A2988 RMK A01 T03161039  RH  010%=      5-min Rain = 0
KMUS 140020Z 22020G27KT 31/M04 A2988 RMK A01 T03141043  RH  010%=      5-min Rain = 0
KMUS 140025Z 22019G25KT 31/M04 A2988 RMK A01 T03141044  RH  010%=      5-min Rain = 0
KMUS 140030Z 22017G25KT 31/M04 A2988 RMK A01 T03131042  RH  010%=      5-min Rain = 0
KMUS 140035Z 22019G24KT 31/M04 A2988 RMK A01 T03101039  RH  010%=      5-min Rain = 0
KMUS 140040Z 22015G22KT 31/M04 A2988 RMK A01 T03111038  RH  010%=      5-min Rain = 0
KMUS 140045Z 22016G22KT 31/M04 A2988 RMK A01 T03101037  RH  010%=      5-min Rain = 0
KMUS 140050Z 22017G22KT 31/M04 A2988 RMK A01 T03101037  RH  010%=      5-min Rain = 0
KMUS 140055Z 22017G23KT 31/M04 A2988 RMK A01 T03081038  RH  010%=      5-min Rain = 0
KMUS 140100Z 22016G21KT 31/M04 A2988 RMK A01 T03051038  RH  011%=      5-min Rain = 0
KMUS 140105Z 22014G19KT 30/M04 A2989 RMK A01 T03021037  RH  011%=      5-min Rain = 0
KMUS 140110Z 22011KT 30/M04 A2989 RMK A01 T03001035  RH  011%=      5-min Rain = 0
KMUS 140115Z 23011KT 30/M04 A2988 RMK A01 T02961036  RH  011%=      5-min Rain = 0
KMUS 140120Z 23011KT 29/M04 A2988 RMK A01 T02921037  RH  011%=      5-min Rain = 0
KMUS 140125Z 23010KT 29/M04 A2988 RMK A01 T02891037  RH  012%=      5-min Rain = 0
KMUS 140130Z 23009KT 28/M04 A2988 RMK A01 T02841037  RH  012%=      5-min Rain = 0
KMUS 140135Z 23008KT 28/M04 A2988 RMK A01 T02781037  RH  013%=      5-min Rain = 0
KMUS 140140Z 23007KT 27/M04 A2988 RMK A01 T02731037  RH  013%=      5-min Rain = 0
KMUS 140145Z 23007KT 27/M04 A2988 RMK A01 T02671037  RH  013%=      5-min Rain = 0
KMUS 140150Z 23007KT 26/M04 A2988 RMK A01 T02611037  RH  014%=      5-min Rain = 0
KMUS 140155Z 23007KT 26/M04 A2988 RMK A01 T02551038  RH  014%=      5-min Rain = 0
KMUS 140200Z 23008KT 25/M04 A2988 RMK A01 T02521039  RH  014%=      5-min Rain = 0
KMUS 140205Z 23008KT 25/M04 A2988 RMK A01 T02511039  RH  014%=      5-min Rain = 0
KMUS 140210Z 23009KT 25/M04 A2988 RMK A01 T02501040  RH  014%=      5-min Rain = 0
KMUS 140215Z 23010KT 25/M04 A2989 RMK A01 T02521041  RH  014%=      5-min Rain = 0
KMUS 140220Z 23010KT 25/M04 A2989 RMK A01 T02541041  RH  014%=      5-min Rain = 0
KMUS 140225Z 23010KT 25/M04 A2989 RMK A01 T02531041  RH  014%=      5-min Rain = 0
KMUS 140230Z 23009KT 25/M04 A2989 RMK A01 T02501041  RH  014%=      5-min Rain = 0
KMUS 140235Z 23009KT 25/M04 A299 RMK A01 T02451041  RH  015%=      5-min Rain = 0
KMUS 140240Z 23009KT 24/M04 A299 RMK A01 T02421042  RH  015%=      5-min Rain = 0
KMUS 140245Z 23009KT 24/M04 A299 RMK A01 T02401041  RH  015%=      5-min Rain = 0
KMUS 140250Z 23009KT 24/M04 A299 RMK A01 T02411043  RH  015%=      5-min Rain = 0
KMUS 140255Z 23009KT 24/M04 A299 RMK A01 T02431043  RH  015%=      5-min Rain = 0
KMUS 140300Z 22009KT 24/M04 A299 RMK A01 T02391042  RH  015%=      5-min Rain = 0
KMUS 140305Z 22008KT 23/M04 A299 RMK A01 T02301037  RH  017%=      5-min Rain = 0
KMUS 140310Z 22008KT 22/M04 A299 RMK A01 T02211035  RH  018%=      5-min Rain = 0
KMUS 140315Z 22007KT 22/M04 A299 RMK A01 T02171035  RH  018%=      5-min Rain = 0
KMUS 140320Z 21008KT 21/M03 A2991 RMK A01 T02141034  RH  019%=      5-min Rain = 0
KMUS 140325Z 21008KT 21/M03 A2991 RMK A01 T02121033  RH  019%=      5-min Rain = 0
KMUS 140330Z 21008KT 21/M03 A2991 RMK A01 T02101026  RH  020%=      5-min Rain = 0
KMUS 140335Z 20008KT 20/M02 A2991 RMK A01 T02041021  RH  022%=      5-min Rain = 0
KMUS 140340Z 21008KT 20/M02 A2992 RMK A01 T01991023  RH  022%=      5-min Rain = 0
KMUS 140345Z 21008KT 20/M02 A2992 RMK A01 T01981023  RH  023%=      5-min Rain = 0
KMUS 140350Z 22009KT 20/M03 A2992 RMK A01 T02001027  RH  022%=      5-min Rain = 0
KMUS 140355Z 22009KT 21/M03 A2993 RMK A01 T02071033  RH  020%=      5-min Rain = 0
KMUS 140400Z 22009KT 21/M04 A2993 RMK A01 T02141035  RH  019%=      5-min Rain = 0
KMUS 140405Z 23010KT 22/M04 A2993 RMK A01 T02201037  RH  018%=      5-min Rain = 0
KMUS 140410Z 23010KT 23/M04 A2994 RMK A01 T02271039  RH  017%=      5-min Rain = 0
KMUS 140415Z 23010KT 24/M04 A2994 RMK A01 T02351043  RH  015%=      5-min Rain = 0
KMUS 140420Z 23011KT 24/M05 A2994 RMK A01 T02411045  RH  015%=      5-min Rain = 0
KMUS 140425Z 22010KT 24/M05 A2994 RMK A01 T02441045  RH  014%=      5-min Rain = 0
KMUS 140430Z 22010KT 25/M05 A2994 RMK A01 T02451045  RH  014%=      5-min Rain = 0
KMUS 140435Z 22009KT 24/M05 A2994 RMK A01 T02421045  RH  015%=      5-min Rain = 0
KMUS 140440Z 21009KT 24/M05 A2995 RMK A01 T02381045  RH  015%=      5-min Rain = 0
KMUS 140445Z 21008KT 23/M04 A2995 RMK A01 T02341040  RH  016%=      5-min Rain = 0
KMUS 140450Z 20008KT 23/M03 A2995 RMK A01 T02281034  RH  017%=      5-min Rain = 0
KMUS 140455Z 20007KT 22/M03 A2995 RMK A01 T02161029  RH  019%=      5-min Rain = 0

Page generated in 0.0202 seconds.